createdAt,value
2022-11-29T00:07:43.091Z,4.45
2022-11-29T00:10:20.744Z,3.47
2022-11-29T00:13:00.303Z,3.17
2022-11-29T00:16:30.947Z,4.13
2022-11-29T00:20:56.011Z,3.60
2022-11-29T00:22:12.618Z,2.85
2022-11-29T00:25:11.695Z,3.10
2022-11-29T00:29:26.958Z,2.80
2022-11-29T00:31:59.776Z,3.95
2022-11-29T00:34:42.935Z,4.03
2022-11-29T00:37:12.095Z,3.25
2022-11-29T00:41:16.012Z,2.63
2022-11-29T00:43:37.174Z,5.63
2022-11-29T00:46:28.837Z,4.18
2022-11-29T00:48:55.782Z,5.25
2022-11-29T00:51:22.787Z,4.13
2022-11-29T00:56:44.141Z,5.77
2022-11-29T00:59:22.335Z,4.93
2022-11-29T01:02:00.362Z,4.55
2022-11-29T01:04:57.514Z,3.53
2022-11-29T01:07:53.466Z,3.15
2022-11-29T01:10:24.055Z,4.87
2022-11-29T01:13:30.577Z,4.38
2022-11-29T01:16:28.727Z,3.75
2022-11-29T01:19:11.556Z,5.20
2022-11-29T01:22:35.031Z,4.60
2022-11-29T01:24:47.635Z,4.90
2022-11-29T01:27:16.936Z,5.43
2022-11-29T01:30:16.792Z,5.68
2022-11-29T01:32:54.555Z,4.82
2022-11-29T01:35:38.217Z,5.65
2022-11-29T01:38:40.928Z,3.53
2022-11-29T01:41:13.817Z,4.25
2022-11-29T01:44:15.955Z,5.65
2022-11-29T01:47:16.279Z,3.97
2022-11-29T01:49:56.564Z,4.43
2022-11-29T01:52:32.883Z,8.00
2022-11-29T01:55:09.136Z,3.70
2022-11-29T01:57:46.455Z,4.10
2022-11-29T02:00:18.134Z,4.40
2022-11-29T02:03:10.092Z,4.60
2022-11-29T02:09:08.255Z,5.65
2022-11-29T02:12:20.056Z,5.25
2022-11-29T02:15:11.269Z,6.53
2022-11-29T02:18:12.162Z,3.10
2022-11-29T02:21:12.609Z,3.93
2022-11-29T02:24:10.275Z,3.67
2022-11-29T02:27:16.578Z,14.85
2022-11-29T02:30:22.457Z,3.30
2022-11-29T02:33:35.716Z,4.70
2022-11-29T02:36:13.196Z,4.80
2022-11-29T02:39:04.523Z,5.20
2022-11-29T02:41:59.805Z,3.97
2022-11-29T02:44:47.212Z,3.92
2022-11-29T02:47:34.035Z,4.55
2022-11-29T02:50:39.197Z,3.57
2022-11-29T02:53:15.402Z,5.40
2022-11-29T02:57:25.464Z,4.15
2022-11-29T02:59:24.814Z,4.22
2022-11-29T03:02:33.963Z,4.60
2022-11-29T03:05:24.057Z,3.87
2022-11-29T03:08:26.642Z,3.58
2022-11-29T03:11:15.615Z,3.22
2022-11-29T03:14:38.843Z,2.72
2022-11-29T03:23:33.412Z,5.03
2022-11-29T03:26:18.679Z,4.97
2022-11-29T03:29:39.273Z,5.55
2022-11-29T03:32:12.643Z,4.68
2022-11-29T03:35:18.010Z,4.23
2022-11-29T03:37:57.100Z,4.85
2022-11-29T03:40:52.997Z,5.68
2022-11-29T03:46:59.083Z,5.47
2022-11-29T03:50:02.677Z,5.43
2022-11-29T03:52:53.962Z,3.60
2022-11-29T03:55:51.697Z,4.07
2022-11-29T03:58:44.365Z,3.03
2022-11-29T04:01:30.010Z,32.53
2022-11-29T04:04:36.670Z,18.03
2022-11-29T04:07:21.282Z,10.13
2022-11-29T04:10:37.716Z,9.02
2022-11-29T04:13:38.736Z,37.38
2022-11-29T04:16:10.280Z,14.52
2022-11-29T04:19:12.356Z,12.50
2022-11-29T04:23:51.323Z,14.95
2022-11-29T04:25:53.075Z,14.50
2022-11-29T04:31:53.635Z,8.38
2022-11-29T04:34:36.614Z,10.40
2022-11-29T04:37:35.104Z,19.63
2022-11-29T04:40:15.475Z,21.00
2022-11-29T04:43:48.136Z,27.38
2022-11-29T04:46:35.648Z,5.70
2022-11-29T04:53:24.635Z,8.32
2022-11-29T04:57:27.396Z,13.77
2022-11-29T04:59:48.114Z,13.82
2022-11-29T05:03:34.858Z,15.25
2022-11-29T05:06:19.027Z,6.73
2022-11-29T05:09:31.592Z,20.88
2022-11-29T05:12:41.383Z,13.27
2022-11-29T05:15:17.155Z,12.80
2022-11-29T05:18:08.178Z,10.13
2022-11-29T05:21:09.183Z,17.47
2022-11-29T05:23:59.849Z,12.75
2022-11-29T05:26:57.945Z,17.73
2022-11-29T05:29:38.811Z,18.77
2022-11-29T05:32:20.423Z,25.67
2022-11-29T05:35:19.599Z,6.13
2022-11-29T05:37:57.245Z,2.85
2022-11-29T05:40:53.894Z,3.47
2022-11-29T05:44:08.207Z,5.03
2022-11-29T05:46:44.684Z,4.80
2022-11-29T05:49:32.596Z,3.33
2022-11-29T05:52:24.061Z,5.10
2022-11-29T05:55:29.395Z,5.18
2022-11-29T05:58:03.156Z,4.28
2022-11-29T06:00:43.599Z,5.15
2022-11-29T06:03:25.155Z,6.90
2022-11-29T06:06:05.661Z,7.63
2022-11-29T06:08:44.210Z,5.22
2022-11-29T06:11:52.236Z,2.78
2022-11-29T06:14:43.363Z,3.85
2022-11-29T06:17:37.259Z,10.37
2022-11-29T06:20:38.773Z,20.15
2022-11-29T06:23:30.007Z,10.13
2022-11-29T06:26:08.491Z,10.82
2022-11-29T06:47:41.164Z,13.20
2022-11-29T06:50:50.233Z,16.83
2022-11-29T06:53:40.840Z,11.32
2022-11-29T06:56:13.922Z,12.00
2022-11-29T06:58:52.546Z,17.88
2022-11-29T07:01:43.578Z,26.23
2022-11-29T07:04:32.657Z,18.38
2022-11-29T07:06:59.894Z,9.52
2022-11-29T07:09:33.576Z,10.18
2022-11-29T07:12:00.882Z,7.55
2022-11-29T07:14:27.803Z,11.80
2022-11-29T07:17:09.649Z,9.18
2022-11-29T07:19:54.539Z,7.15
2022-11-29T07:22:59.018Z,15.80
2022-11-29T07:25:49.177Z,6.53
2022-11-29T07:28:30.901Z,3.80
2022-11-29T07:31:03.456Z,4.55
2022-11-29T07:33:44.329Z,3.45
2022-11-29T07:36:32.770Z,4.95
2022-11-29T07:39:08.470Z,5.35
2022-11-29T07:42:13.579Z,4.77
2022-11-29T07:45:04.857Z,4.93
2022-11-29T07:47:35.668Z,3.28
2022-11-29T07:50:03.265Z,4.75
2022-11-29T07:52:30.355Z,6.20
2022-11-29T07:54:57.192Z,4.83
2022-11-29T07:57:24.088Z,4.78
2022-11-29T07:59:51.009Z,4.88
2022-11-29T08:02:27.532Z,5.05
2022-11-29T08:04:54.340Z,2.65
2022-11-29T08:07:21.572Z,4.50
2022-11-29T08:09:48.619Z,1.27
2022-11-29T08:12:16.015Z,1.48
2022-11-29T08:14:42.951Z,1.50
2022-11-29T08:17:10.025Z,1.05
2022-11-29T08:19:37.192Z,1.37
2022-11-29T08:22:04.040Z,2.40
2022-11-29T08:24:30.864Z,2.83
2022-11-29T08:26:57.663Z,1.55
2022-11-29T08:29:24.351Z,3.83
2022-11-29T08:31:53.787Z,1.43
2022-11-29T08:34:22.946Z,1.08
2022-11-29T08:36:50.613Z,1.33
2022-11-29T08:39:17.752Z,2.85
2022-11-29T08:41:44.768Z,5.40
2022-11-29T08:44:11.489Z,3.57
2022-11-29T08:46:38.203Z,7.05
2022-11-29T08:49:05.137Z,2.30
2022-11-29T08:51:31.937Z,4.13
2022-11-29T08:53:58.717Z,6.68
2022-11-29T08:57:16.533Z,10.23
2022-11-29T08:59:12.451Z,13.15
2022-11-29T09:01:39.494Z,6.13
2022-11-29T09:04:06.452Z,5.93
2022-11-29T09:06:37.992Z,6.55
2022-11-29T09:09:05.418Z,5.43
2022-11-29T09:11:34.680Z,8.57
2022-11-29T09:14:07.150Z,5.75
2022-11-29T09:16:38.181Z,3.80
2022-11-29T09:19:05.819Z,4.97
2022-11-29T09:21:34.567Z,3.77
2022-11-29T09:24:03.222Z,3.70
2022-11-29T09:26:32.755Z,3.47
2022-11-29T09:29:01.320Z,10.02
2022-11-29T09:31:29.417Z,7.93
2022-11-29T09:33:56.375Z,7.47
2022-11-29T09:36:28.130Z,16.35
2022-11-29T09:38:56.489Z,2.33
2022-11-29T09:41:57.287Z,8.02
2022-11-29T09:44:36.540Z,6.45
2022-11-29T09:47:40.535Z,3.77
2022-11-29T09:50:25.960Z,8.95
2022-11-29T09:53:14.257Z,4.57
2022-11-29T09:55:52.994Z,2.40
2022-11-29T09:58:24.912Z,4.68
2022-11-29T10:00:56.771Z,5.70
2022-11-29T10:03:32.055Z,18.05
2022-11-29T10:06:24.823Z,8.85
2022-11-29T10:09:02.537Z,3.70
2022-11-29T10:11:35.772Z,2.75
2022-11-29T10:14:17.121Z,8.33
2022-11-29T10:16:47.010Z,2.90
2022-11-29T10:19:27.997Z,11.40
2022-11-29T10:22:07.392Z,9.82
2022-11-29T10:24:34.722Z,9.27
2022-11-29T10:27:01.824Z,6.63
2022-11-29T10:29:28.649Z,7.35
2022-11-29T10:31:55.940Z,3.78
2022-11-29T10:34:27.140Z,3.40
2022-11-29T10:36:57.858Z,6.20
2022-11-29T10:39:37.549Z,2.37
2022-11-29T10:42:06.413Z,5.80
2022-11-29T10:44:42.987Z,6.10
2022-11-29T10:47:16.173Z,9.45
2022-11-29T10:49:55.614Z,6.13
2022-11-29T10:52:23.835Z,10.73
2022-11-29T10:58:28.550Z,2.75
2022-11-29T11:01:11.272Z,4.97
2022-11-29T11:03:53.492Z,5.00
2022-11-29T11:09:57.347Z,5.97
2022-11-29T11:15:58.922Z,2.00
2022-11-29T11:18:27.684Z,2.22
2022-11-29T11:20:58.631Z,1.97
2022-11-29T11:23:42.375Z,2.42
2022-11-29T11:26:13.340Z,1.83
2022-11-29T11:29:00.914Z,2.10
2022-11-29T11:31:35.219Z,4.82
2022-11-29T11:34:34.551Z,1.87
2022-11-29T11:37:16.545Z,4.55
2022-11-29T11:39:44.901Z,2.42
2022-11-29T11:42:19.799Z,4.72
2022-11-29T11:44:51.361Z,4.75
2022-11-29T11:47:28.821Z,10.27
2022-11-29T11:50:48.025Z,4.28
2022-11-29T11:53:29.514Z,3.50
2022-11-29T11:56:09.085Z,3.28
2022-11-29T11:58:54.773Z,3.00
2022-11-29T12:01:33.107Z,3.27
2022-11-29T12:04:08.973Z,3.97
2022-11-29T12:07:00.081Z,4.07
2022-11-29T12:09:36.393Z,2.72
2022-11-29T12:12:21.461Z,3.50
2022-11-29T12:15:01.818Z,5.47
2022-11-29T12:17:40.072Z,4.03
2022-11-29T12:20:25.335Z,4.60
2022-11-29T12:23:13.795Z,4.03
2022-11-29T12:26:09.379Z,6.95
2022-11-29T12:28:41.421Z,1.83
2022-11-29T12:31:29.850Z,3.35
2022-11-29T12:34:41.288Z,5.50
2022-11-29T12:37:21.669Z,2.47
2022-11-29T12:40:09.439Z,2.10
2022-11-29T12:43:39.925Z,2.37
2022-11-29T12:50:03.954Z,4.43
2022-11-29T12:53:32.244Z,2.13
2022-11-29T12:56:15.585Z,1.70
2022-11-29T12:59:00.378Z,4.30
2022-11-29T13:01:31.629Z,4.00
2022-11-29T13:07:43.742Z,2.97
2022-11-29T13:10:37.052Z,3.63
2022-11-29T13:13:31.700Z,2.43
2022-11-29T13:16:20.658Z,3.03
2022-11-29T13:23:10.309Z,2.58
2022-11-29T13:26:21.904Z,6.47
2022-11-29T13:29:25.567Z,3.07
2022-11-29T13:35:21.510Z,4.35
2022-11-29T13:39:30.388Z,2.33
2022-11-29T13:46:18.964Z,1.87
2022-11-29T13:48:34.943Z,7.75
2022-11-29T13:52:38.067Z,10.50
2022-11-29T13:55:14.207Z,7.13
2022-11-29T13:58:18.577Z,5.70
2022-11-29T14:00:45.739Z,6.47
2022-11-29T14:03:26.413Z,50.05
2022-11-29T14:06:12.950Z,41.92
2022-11-29T14:09:21.417Z,28.70
2022-11-29T14:15:17.092Z,8.97
2022-11-29T14:17:57.091Z,6.22
2022-11-29T14:20:23.924Z,5.78
2022-11-29T14:23:05.700Z,7.82
2022-11-29T14:25:51.707Z,18.13
2022-11-29T14:28:21.530Z,19.53
2022-11-29T14:30:54.043Z,25.50
2022-11-29T14:33:26.900Z,12.23
2022-11-29T14:36:01.405Z,14.05
2022-11-29T14:38:55.955Z,15.88
2022-11-29T14:41:50.233Z,8.67
2022-11-29T14:44:29.131Z,10.77
2022-11-29T14:47:06.858Z,9.10
2022-11-29T14:49:43.499Z,11.18
2022-11-29T14:52:13.716Z,10.52
2022-11-29T14:55:00.827Z,10.17
2022-11-29T14:58:02.268Z,19.00
2022-11-29T15:00:47.379Z,17.17
2022-11-29T15:03:21.293Z,12.60
2022-11-29T15:06:06.303Z,11.75
2022-11-29T15:08:40.355Z,8.53
2022-11-29T15:11:27.374Z,12.75
2022-11-29T15:14:42.820Z,9.75
2022-11-29T15:17:35.990Z,14.75
2022-11-29T15:20:14.834Z,23.90
2022-11-29T15:22:54.504Z,17.30
2022-11-29T15:25:24.856Z,18.20
2022-11-29T15:28:01.281Z,26.80
2022-11-29T15:30:42.594Z,30.50
2022-11-29T15:33:22.423Z,47.88
2022-11-29T15:35:55.243Z,57.37
2022-11-29T15:38:23.721Z,60.65
2022-11-29T15:40:52.881Z,43.92
2022-11-29T15:43:35.273Z,51.08
2022-11-29T15:46:02.411Z,35.70
2022-11-29T15:48:31.636Z,20.20
2022-11-29T15:51:04.675Z,24.30
2022-11-29T15:54:00.377Z,25.23
2022-11-29T15:56:59.842Z,24.48
2022-11-29T15:59:41.195Z,28.83
2022-11-29T16:02:27.600Z,12.17
2022-11-29T16:04:58.005Z,7.85
2022-11-29T16:07:26.974Z,8.82
2022-11-29T16:10:02.092Z,12.00
2022-11-29T16:12:29.183Z,10.10
2022-11-29T16:14:57.092Z,12.40
2022-11-29T16:17:30.013Z,11.50
2022-11-29T16:20:26.307Z,8.38
2022-11-29T16:23:13.995Z,10.07
2022-11-29T16:26:12.947Z,15.00
2022-11-29T16:28:46.510Z,14.03
2022-11-29T16:31:24.934Z,25.38
2022-11-29T16:33:52.700Z,28.20
2022-11-29T16:36:23.363Z,20.48
2022-11-29T16:38:59.045Z,18.88
2022-11-29T16:41:36.998Z,11.83
2022-11-29T16:44:06.884Z,10.52
2022-11-29T16:46:38.705Z,13.85
2022-11-29T16:49:33.642Z,10.48
2022-11-29T16:52:01.533Z,11.40
2022-11-29T16:54:55.874Z,18.23
2022-11-29T16:57:23.695Z,10.02
2022-11-29T16:59:55.653Z,27.30
2022-11-29T17:02:33.588Z,18.90
2022-11-29T17:05:04.752Z,15.38
2022-11-29T17:07:56.362Z,11.07
2022-11-29T17:10:25.576Z,11.85
2022-11-29T17:12:53.057Z,12.35
2022-11-29T17:15:25.033Z,22.17
2022-11-29T17:17:52.486Z,20.25
2022-11-29T17:20:24.698Z,19.83
2022-11-29T17:22:51.677Z,19.38
2022-11-29T17:25:33.875Z,17.55
2022-11-29T17:28:01.237Z,9.48
2022-11-29T17:30:35.633Z,10.18
2022-11-29T17:33:11.852Z,9.73
2022-11-29T17:35:45.844Z,10.25
2022-11-29T17:38:22.404Z,14.50
2022-11-29T17:40:49.769Z,15.18
2022-11-29T17:43:19.849Z,12.73
2022-11-29T17:45:58.368Z,12.60
2022-11-29T17:48:33.346Z,13.25
2022-11-29T17:54:05.551Z,16.20
2022-11-29T17:56:40.384Z,29.20
2022-11-29T17:59:30.175Z,31.37
2022-11-29T18:01:57.384Z,15.60
2022-11-29T18:04:26.705Z,9.32
2022-11-29T18:06:53.836Z,6.55
2022-11-29T18:09:22.086Z,8.07
2022-11-29T18:11:54.050Z,8.67
2022-11-29T18:14:23.185Z,13.18
2022-11-29T18:16:50.755Z,13.07
2022-11-29T18:19:24.980Z,10.38
2022-11-29T18:21:58.691Z,7.15
2022-11-29T18:24:37.281Z,7.77
2022-11-29T18:27:25.994Z,5.75
2022-11-29T18:30:13.411Z,13.57
2022-11-29T18:32:43.070Z,5.07
2022-11-29T18:35:20.300Z,7.22
2022-11-29T18:38:16.313Z,5.37
2022-11-29T18:40:54.169Z,9.00
2022-11-29T18:43:28.254Z,7.30
2022-11-29T18:46:38.816Z,5.18
2022-11-29T18:49:11.599Z,4.10
2022-11-29T18:54:26.154Z,4.03
2022-11-29T18:57:11.385Z,12.73
2022-11-29T18:59:38.761Z,11.18
2022-11-29T19:02:15.667Z,16.30
2022-11-29T19:10:43.516Z,6.90
2022-11-29T19:13:10.983Z,3.85
2022-11-29T19:15:42.653Z,4.50
2022-11-29T19:18:09.887Z,10.90
2022-11-29T19:20:37.204Z,4.93
2022-11-29T19:23:04.275Z,8.13
2022-11-29T19:25:34.763Z,5.25
2022-11-29T19:28:02.276Z,3.15
2022-11-29T19:30:29.586Z,3.23
2022-11-29T19:33:06.126Z,3.42
2022-11-29T19:35:38.620Z,4.82
2022-11-29T19:38:05.821Z,8.68
2022-11-29T19:41:17.937Z,9.45
2022-11-29T19:43:54.777Z,10.00
2022-11-29T19:46:45.367Z,7.88
2022-11-29T19:49:12.757Z,2.88
2022-11-29T19:54:34.421Z,6.22
2022-11-29T19:57:01.870Z,3.90
2022-11-29T19:59:28.895Z,11.38
2022-11-29T20:01:56.007Z,9.25
2022-11-29T20:04:23.239Z,2.95
2022-11-29T20:06:50.195Z,3.20
2022-11-29T20:09:18.112Z,2.60
2022-11-29T20:11:45.484Z,4.25
2022-11-29T20:14:13.053Z,2.85
2022-11-29T20:16:40.383Z,2.63
2022-11-29T20:19:19.866Z,2.80
2022-11-29T20:21:54.445Z,6.97
2022-11-29T20:27:21.652Z,4.97
2022-11-29T20:29:56.831Z,5.90
2022-11-29T20:32:40.275Z,4.18
2022-11-29T20:35:08.151Z,11.33
2022-11-29T20:38:21.304Z,6.85
2022-11-29T20:41:39.233Z,9.10
2022-11-29T20:44:08.529Z,9.30
2022-11-29T20:46:38.795Z,4.25
2022-11-29T20:52:34.543Z,3.83
2022-11-29T20:55:29.853Z,4.05
2022-11-29T20:58:18.306Z,6.95
2022-11-29T21:03:28.389Z,6.17
2022-11-29T21:06:24.754Z,9.55
2022-11-29T21:08:55.094Z,7.65
2022-11-29T21:11:22.562Z,8.57
2022-11-29T21:13:49.728Z,7.75
2022-11-29T21:16:17.264Z,7.13
2022-11-29T21:18:48.441Z,10.82
2022-11-29T21:21:33.841Z,14.25
2022-11-29T21:24:18.037Z,9.02
2022-11-29T21:26:52.511Z,1.95
2022-11-29T21:29:22.052Z,3.87
2022-11-29T21:31:52.392Z,5.85
2022-11-29T21:34:20.184Z,4.80
2022-11-29T21:36:58.886Z,5.93
2022-11-29T21:39:33.834Z,2.78
2022-11-29T21:42:00.891Z,5.87
2022-11-29T21:44:27.884Z,3.70
2022-11-29T21:46:55.027Z,1.30
2022-11-29T21:49:22.141Z,5.45
2022-11-29T21:51:49.191Z,3.65
2022-11-29T21:54:16.279Z,1.70
2022-11-29T21:56:43.102Z,4.45
2022-11-29T21:59:09.810Z,1.92
2022-11-29T22:01:36.764Z,1.45
2022-11-29T22:04:03.869Z,0.93
2022-11-29T22:06:30.674Z,2.53
2022-11-29T22:08:57.695Z,0.52
2022-11-29T22:11:24.604Z,0.50
2022-11-29T22:13:53.527Z,1.42
2022-11-29T22:16:20.680Z,1.60
2022-11-29T22:18:47.532Z,1.23
2022-11-29T22:21:14.303Z,0.98
2022-11-29T22:23:41.176Z,1.10
2022-11-29T22:26:08.512Z,0.60
2022-11-29T22:28:35.894Z,0.50
2022-11-29T22:31:10.489Z,0.97
2022-11-29T22:33:38.191Z,0.85
2022-11-29T22:36:11.514Z,1.38
2022-11-29T22:38:39.642Z,0.80
2022-11-29T22:41:10.574Z,0.38
2022-11-29T22:43:39.614Z,0.83
2022-11-29T22:46:08.548Z,0.63
2022-11-29T22:48:39.030Z,1.15
2022-11-29T22:51:15.413Z,0.90
2022-11-29T22:53:47.762Z,1.25
2022-11-29T22:56:14.759Z,1.57
2022-11-29T22:58:41.773Z,0.60
2022-11-29T23:01:11.681Z,1.27
2022-11-29T23:03:43.783Z,1.40
2022-11-29T23:06:16.348Z,0.98
2022-11-29T23:08:44.899Z,0.70
2022-11-29T23:11:14.235Z,0.90
2022-11-29T23:13:42.391Z,1.00
2022-11-29T23:16:12.627Z,0.90
2022-11-29T23:18:40.154Z,1.02
2022-11-29T23:21:28.681Z,0.73
2022-11-29T23:23:56.746Z,0.98
2022-11-29T23:26:36.819Z,0.90
2022-11-29T23:29:05.286Z,1.00
2022-11-29T23:31:32.983Z,0.70
2022-11-29T23:33:59.974Z,0.67
2022-11-29T23:36:26.965Z,0.52
2022-11-29T23:38:53.767Z,1.02
2022-11-29T23:41:20.694Z,0.88
2022-11-29T23:43:47.501Z,1.33
2022-11-29T23:46:19.962Z,1.40
2022-11-29T23:48:47.731Z,1.17
2022-11-29T23:51:15.405Z,1.48
2022-11-29T23:53:42.697Z,0.98
2022-11-29T23:56:15.436Z,1.27
2022-11-29T23:58:43.404Z,1.87
